Sawyerville, IL (62085)

8:46 PM CST on November 23, 2014 (GMT -0600)
North Benld | Change Station
CLOSE
Current Station
Personal Weather Station
Location: Benld, IL
Elevation: 636 ft
Nearby Weather Stations

Elev 636 ft 39.10 °N, 89.80 °W | Updated 13 seconds ago

Fog
Fog
51.4 °F
Feels Like 51.4 °F
N
0.0
Wind Variable Wind from SW
Gusts 7.0 mph

Today
High -- | Low -- °F
--% Chance of Precip.
Yesterday
High -- | Low -- °F
Precip. -- in
6:51 AM 4:39 PM
Waxing Crescent, 3% visible
Pressure 29.24 in
Visibility 3.0 miles
Clouds Mostly Cloudy 300 ft
Overcast 900 ft
Dew Point 51 °F
Humidity 99%
Rainfall 0.97 in
Snow Depth Not available.
UV 0 out of 12
Pollen .40 out of 12
Air Quality Not available.
Flu Activity Not available.
METAR K3LF 240235Z AUTO 19007KT 3SM BR BKN003 OVC009 10/09 A2924 RMK AO2 T00980091

More Conditions Fewer Conditions

Pressure 29.24 in
Visibility 3.0 miles
Clouds Mostly Cloudy 300 ft
Overcast 900 ft
Dew Point 51 °F
Humidity 99%
Rainfall 0.97 in
Snow Depth Not available.
UV 0 out of 12
Pollen .40 out of 12
Air Quality Not available.
Flu Activity Not available.
METAR K3LF 240235Z AUTO 19007KT 3SM BR BKN003 OVC009 10/09 A2924 RMK AO2 T00980091

More Conditions Fewer Conditions

10-Day Weather Forecast

Almanac

Astronomy

Nov. 23, 2014 Rise Set
Actual Time
Civil Twilight
Nautical Twilight
Astronomical Twilight
Moon
Length of Visible Light
Length of Day
Tomorrow will be .
, % of the Moon is Illuminated

Today's Extremes

State Highs State Lows

Community

WunderPhotos

Upload Photos

1,773,257 photos uploaded!

WunderBlogs® & News

Nearby

Air Quality

  Air Quality AQ Index Pollutant
Not available.

Snow Depth

Station Depth Elevation

Earthquake Activity

City Distance Mag. Time & Date
Minimum magnitude displayed is 2.5.

Coastal Water Temperatures

Place Temperature

Nearby Weather Stations